Time;durP1;ratioP1;P1;durP2;ratioP2;P2;SDS_P1;SDS_P2;PMS_P1;PMS_P2;Temp;Humidity;BMP_temperature;BMP_pressure;BME280_temperature;BME280_humidity;BME280_pressure;Samples;Min_cycle;Max_cycle;Signal;HPM_P1;HPM_P2
2022/03/03 00:01:55;;;;;;;181.50;114.53;;;14.10;64.60;;;;;;5249276;28;20064;-29
2022/03/03 00:04:26;;;;;;;174.33;113.07;;;14.10;64.60;;;;;;5246307;28;20110;-28
2022/03/03 00:06:57;;;;;;;183.43;118.47;;;14.10;64.60;;;;;;5249135;28;20420;-30
2022/03/03 00:09:28;;;;;;;184.77;118.60;;;14.10;64.60;;;;;;5247917;28;20064;-28
2022/03/03 00:11:59;;;;;;;202.20;126.67;;;14.10;64.70;;;;;;5249126;28;20064;-28
2022/03/03 00:14:30;;;;;;;206.87;130.60;;;14.10;64.70;;;;;;5248866;28;20041;-28
2022/03/03 00:17:00;;;;;;;195.30;127.07;;;14.00;64.80;;;;;;5249053;28;20049;-30
2022/03/03 00:19:32;;;;;;;210.47;130.07;;;14.10;64.90;;;;;;5248852;28;20163;-28
2022/03/03 00:22:03;;;;;;;201.27;128.37;;;14.00;64.90;;;;;;5248998;28;20476;-28
2022/03/03 00:24:34;;;;;;;195.37;127.00;;;14.00;65.00;;;;;;5246809;28;20478;-28
2022/03/03 00:27:06;;;;;;;193.80;122.90;;;14.00;65.00;;;;;;5248858;28;20086;-29
2022/03/03 00:29:37;;;;;;;188.02;118.78;;;14.00;65.00;;;;;;5247454;28;20494;-32
2022/03/03 00:32:08;;;;;;;193.17;122.87;;;14.00;65.00;;;;;;5247223;28;20087;-27
2022/03/03 00:34:39;;;;;;;190.80;121.90;;;14.00;65.00;;;;;;5247756;28;20075;-28
2022/03/03 00:37:10;;;;;;;188.23;121.93;;;14.00;65.10;;;;;;5247610;28;20076;-31
2022/03/03 00:39:41;;;;;;;183.50;117.80;;;14.00;65.10;;;;;;5247415;28;20079;-28
2022/03/03 00:42:12;;;;;;;184.50;115.93;;;14.00;65.30;;;;;;5248441;28;20098;-28
2022/03/03 00:44:43;;;;;;;184.10;117.47;;;14.00;65.30;;;;;;5247791;28;20417;-28
2022/03/03 00:47:14;;;;;;;179.27;114.03;;;13.90;65.40;;;;;;5248590;28;20052;-29
2022/03/03 00:49:45;;;;;;;174.83;113.87;;;13.90;65.60;;;;;;5248027;28;20090;-30
2022/03/03 00:52:16;;;;;;;181.47;119.37;;;13.90;65.60;;;;;;5248355;28;20049;-30
2022/03/03 00:54:47;;;;;;;180.57;119.73;;;13.90;65.70;;;;;;5246927;28;20397;-28
2022/03/03 00:57:18;;;;;;;192.93;123.03;;;13.90;65.60;;;;;;5247344;28;20041;-30
2022/03/03 00:59:49;;;;;;;181.73;120.53;;;13.90;65.70;;;;;;5247719;28;20045;-29
2022/03/03 01:02:20;;;;;;;193.63;123.90;;;13.90;65.70;;;;;;5248430;28;20482;-32
2022/03/03 01:05:09;;;;;;;204.30;127.50;;;13.90;65.70;;;;;;5248432;28;20043;-28
2022/03/03 01:07:41;;;;;;;199.63;127.80;;;13.90;65.80;;;;;;5247406;28;20040;-28
2022/03/03 01:10:12;;;;;;;195.33;127.60;;;13.90;65.80;;;;;;5230524;28;20048;-28
2022/03/03 01:12:43;;;;;;;202.63;127.37;;;13.80;66.00;;;;;;5230725;28;20049;-31
2022/03/03 01:15:14;;;;;;;205.07;128.37;;;13.80;65.80;;;;;;5248420;28;20044;-28
2022/03/03 01:17:45;;;;;;;210.73;129.30;;;13.80;65.90;;;;;;5234590;28;20082;-28
2022/03/03 01:20:15;;;;;;;204.63;127.83;;;13.80;66.00;;;;;;5251614;28;20049;-27
2022/03/03 01:22:47;;;;;;;193.17;124.27;;;13.80;66.10;;;;;;5252492;28;20041;-29
2022/03/03 01:25:17;;;;;;;189.50;120.63;;;13.80;66.20;;;;;;5252187;28;20501;-30
2022/03/03 01:27:49;;;;;;;191.60;122.63;;;13.80;66.30;;;;;;5252770;28;20048;-28
2022/03/03 01:30:20;;;;;;;190.03;124.40;;;13.80;66.20;;;;;;5250927;28;20044;-28
2022/03/03 01:32:51;;;;;;;203.93;127.50;;;13.80;66.30;;;;;;5250203;28;20525;-31
2022/03/03 01:35:22;;;;;;;210.00;128.37;;;13.80;66.40;;;;;;5267837;28;20044;-31
2022/03/03 01:37:53;;;;;;;199.00;125.50;;;13.80;66.50;;;;;;5252015;28;20040;-31
2022/03/03 01:40:25;;;;;;;203.80;126.83;;;13.80;66.60;;;;;;5252220;28;20056;-29
2022/03/03 01:42:56;;;;;;;212.10;129.70;;;13.80;66.60;;;;;;5250909;28;20045;-33
2022/03/03 01:45:27;;;;;;;204.47;128.73;;;13.80;66.60;;;;;;5251406;28;20451;-28
2022/03/03 01:47:58;;;;;;;212.10;131.77;;;13.80;66.50;;;;;;5251819;28;20115;-29
2022/03/03 01:50:29;;;;;;;206.90;133.67;;;13.80;66.40;;;;;;5250628;28;20075;-28
2022/03/03 01:53:00;;;;;;;244.17;155.87;;;13.70;66.40;;;;;;5251117;28;20049;-29
2022/03/03 01:55:32;;;;;;;249.27;154.40;;;13.70;66.40;;;;;;5250847;28;20040;-28
2022/03/03 01:58:03;;;;;;;242.07;149.63;;;13.70;66.30;;;;;;5250636;28;20546;-29
2022/03/03 02:00:34;;;;;;;233.33;145.43;;;13.70;66.30;;;;;;5250222;28;20064;-29
2022/03/03 02:03:06;;;;;;;270.20;164.33;;;13.70;66.20;;;;;;5250699;28;20048;-27
2022/03/03 02:05:37;;;;;;;232.53;145.90;;;13.70;66.20;;;;;;5251590;28;20093;-28
2022/03/03 02:08:08;;;;;;;225.80;143.53;;;13.70;66.30;;;;;;5233745;28;20118;-30
2022/03/03 02:10:39;;;;;;;226.50;140.87;;;13.70;66.30;;;;;;5251534;28;20448;-28
2022/03/03 02:13:11;;;;;;;228.90;144.97;;;13.70;66.30;;;;;;5250158;28;20098;-28
2022/03/03 02:15:52;;;;;;;241.20;149.30;;;13.70;66.00;;;;;;5250687;28;20036;-28
2022/03/03 02:18:24;;;;;;;233.17;143.70;;;13.70;66.00;;;;;;5250326;28;20044;-29
2022/03/03 02:20:54;;;;;;;222.70;140.57;;;13.70;65.90;;;;;;5251296;28;20037;-32
2022/03/03 02:23:25;;;;;;;229.17;142.27;;;13.70;65.80;;;;;;5251305;28;20040;-29
2022/03/03 02:25:56;;;;;;;231.20;143.03;;;13.70;65.80;;;;;;5249745;28;20506;-27
2022/03/03 02:28:28;;;;;;;246.60;151.13;;;13.60;65.70;;;;;;5250045;28;20041;-30
2022/03/03 02:30:59;;;;;;;244.97;150.37;;;13.60;65.70;;;;;;5251487;28;20048;-28
2022/03/03 02:33:30;;;;;;;258.20;161.17;;;13.60;65.60;;;;;;5248938;28;20057;-28
2022/03/03 02:36:20;;;;;;;252.10;159.00;;;13.60;65.60;;;;;;5251071;28;20497;-28
2022/03/03 02:38:52;;;;;;;265.97;165.27;;;13.60;65.80;;;;;;5250797;28;20493;-28
2022/03/03 02:41:23;;;;;;;259.27;162.33;;;13.60;65.70;;;;;;5250239;28;20111;-27
2022/03/03 02:43:55;;;;;;;293.03;173.60;;;13.60;65.60;;;;;;5250707;28;20146;-32
2022/03/03 02:46:26;;;;;;;325.83;197.83;;;13.60;65.60;;;;;;5249661;28;20056;-33
2022/03/03 02:48:57;;;;;;;279.77;173.53;;;13.60;65.50;;;;;;5250903;28;20080;-28
2022/03/03 02:51:28;;;;;;;261.20;160.87;;;13.60;65.50;;;;;;5250979;28;20075;-28
2022/03/03 02:54:00;;;;;;;250.63;157.23;;;13.60;65.40;;;;;;5250742;28;20052;-28
2022/03/03 02:56:31;;;;;;;209.93;137.40;;;13.60;65.20;;;;;;5250466;28;20044;-28
2022/03/03 02:59:02;;;;;;;218.00;137.57;;;13.60;65.00;;;;;;5250522;28;20052;-28
2022/03/03 03:01:33;;;;;;;228.63;143.97;;;13.60;64.90;;;;;;5249097;28;20584;-28
2022/03/03 03:04:04;;;;;;;215.40;140.33;;;13.50;64.80;;;;;;5249458;28;20064;-31
2022/03/03 03:06:35;;;;;;;213.47;137.93;;;13.50;64.80;;;;;;5250146;28;20126;-28
2022/03/03 03:09:06;;;;;;;186.60;119.47;;;13.50;64.80;;;;;;5249370;28;20082;-28
2022/03/03 03:11:37;;;;;;;187.43;120.50;;;13.50;64.90;;;;;;5250205;28;20064;-28
2022/03/03 03:14:08;;;;;;;185.87;121.57;;;13.50;64.80;;;;;;5250175;28;20064;-28
2022/03/03 03:16:39;;;;;;;151.90;100.00;;;13.50;64.70;;;;;;5248982;28;20071;-28
2022/03/03 03:19:10;;;;;;;160.53;105.63;;;13.50;64.70;;;;;;5248910;28;20036;-30
2022/03/03 03:21:41;;;;;;;145.43;94.67;;;13.50;64.60;;;;;;5249055;28;20041;-33
2022/03/03 03:24:12;;;;;;;154.27;99.93;;;13.50;64.70;;;;;;5249944;28;20043;-30
2022/03/03 03:26:43;;;;;;;142.30;93.00;;;13.50;64.70;;;;;;5248833;28;20045;-31
2022/03/03 03:29:14;;;;;;;144.97;97.77;;;13.50;64.70;;;;;;5248548;28;20490;-28
2022/03/03 03:31:45;;;;;;;154.47;104.63;;;13.50;64.60;;;;;;5249726;28;20064;-28
2022/03/03 03:34:16;;;;;;;160.63;102.77;;;13.50;64.60;;;;;;5249605;28;20052;-28
2022/03/03 03:36:47;;;;;;;163.27;109.67;;;13.50;64.50;;;;;;5249626;28;20051;-28
2022/03/03 03:39:18;;;;;;;174.70;118.70;;;13.50;64.40;;;;;;5249621;28;20040;-28
2022/03/03 03:41:49;;;;;;;174.03;115.13;;;13.50;64.40;;;;;;5248574;28;20066;-28
2022/03/03 03:44:20;;;;;;;174.23;116.93;;;13.50;64.40;;;;;;5249424;28;20089;-29
2022/03/03 03:46:51;;;;;;;178.57;112.90;;;13.50;64.50;;;;;;5248417;28;20478;-29
2022/03/03 03:49:23;;;;;;;177.10;114.17;;;13.50;64.40;;;;;;5248013;28;20102;-28
2022/03/03 03:51:54;;;;;;;177.47;114.53;;;13.50;64.40;;;;;;5249760;28;20112;-28
2022/03/03 03:54:26;;;;;;;175.33;113.03;;;13.50;64.20;;;;;;5249464;28;20497;-32
2022/03/03 03:56:56;;;;;;;164.17;107.60;;;13.50;64.20;;;;;;5248199;28;20106;-28
2022/03/03 03:59:27;;;;;;;166.70;113.17;;;13.50;64.10;;;;;;5249095;28;20094;-31
2022/03/03 04:01:58;;;;;;;162.40;105.03;;;13.50;63.90;;;;;;5249322;28;20040;-28
2022/03/03 04:04:29;;;;;;;162.83;108.60;;;13.40;63.70;;;;;;5248830;28;20052;-32
2022/03/03 04:07:01;;;;;;;160.00;107.57;;;13.50;63.80;;;;;;5248148;28;20041;-29
2022/03/03 04:09:32;;;;;;;152.00;101.60;;;13.40;63.70;;;;;;5247792;28;20049;-30
2022/03/03 04:12:03;;;;;;;146.40;101.07;;;13.40;63.70;;;;;;5247873;28;20055;-28
2022/03/03 04:14:34;;;;;;;153.63;99.90;;;13.40;63.70;;;;;;5248191;28;20379;-28
2022/03/03 04:17:06;;;;;;;147.77;96.63;;;13.40;63.50;;;;;;5248708;28;20044;-28
2022/03/03 04:19:37;;;;;;;144.37;98.37;;;13.40;63.50;;;;;;5231268;28;20102;-31
2022/03/03 04:22:08;;;;;;;144.50;96.33;;;13.40;63.40;;;;;;5248992;28;20474;-29
2022/03/03 04:24:39;;;;;;;139.87;98.07;;;13.40;63.30;;;;;;5248649;28;20045;-28
2022/03/03 04:27:10;;;;;;;146.63;96.87;;;13.40;63.40;;;;;;5247721;28;20044;-31
2022/03/03 04:29:42;;;;;;;140.70;95.83;;;13.40;63.30;;;;;;5248636;28;20048;-28
2022/03/03 04:32:13;;;;;;;137.17;91.23;;;13.40;63.30;;;;;;5248463;28;20057;-28
2022/03/03 04:34:44;;;;;;;127.43;86.20;;;13.40;63.30;;;;;;5248587;28;20482;-28
2022/03/03 04:37:15;;;;;;;123.97;84.60;;;13.40;63.30;;;;;;5247616;28;20073;-28
2022/03/03 04:39:46;;;;;;;125.43;83.60;;;13.40;63.20;;;;;;5248579;28;20474;-29
2022/03/03 04:42:17;;;;;;;118.10;84.43;;;13.40;63.10;;;;;;5247579;28;20041;-29
2022/03/03 04:44:48;;;;;;;123.97;79.53;;;13.40;63.30;;;;;;5248215;28;20091;-27
2022/03/03 04:47:19;;;;;;;113.27;76.70;;;13.40;63.30;;;;;;5248968;28;20123;-28
2022/03/03 04:49:50;;;;;;;102.50;72.60;;;13.40;63.30;;;;;;5248298;28;20059;-28
2022/03/03 04:52:20;;;;;;;111.83;73.13;;;13.40;63.40;;;;;;5248131;28;20037;-27
2022/03/03 04:54:52;;;;;;;97.00;65.47;;;13.40;63.50;;;;;;5229549;28;20048;-30
2022/03/03 04:57:23;;;;;;;91.90;61.57;;;13.40;63.40;;;;;;5247398;28;20089;-28
2022/03/03 04:59:54;;;;;;;88.17;60.27;;;13.30;63.30;;;;;;5247216;28;20102;-28
2022/03/03 05:02:24;;;;;;;88.43;63.27;;;13.40;63.30;;;;;;5248548;28;20041;-28
2022/03/03 05:04:55;;;;;;;94.27;63.77;;;13.40;63.30;;;;;;5247310;28;20486;-30
2022/03/03 05:07:26;;;;;;;95.33;66.53;;;13.30;63.30;;;;;;5259026;28;20047;-31
2022/03/03 05:09:58;;;;;;;98.80;66.83;;;13.40;63.30;;;;;;5256612;28;20044;-32
2022/03/03 05:12:28;;;;;;;91.77;65.53;;;13.40;63.20;;;;;;5266667;28;20488;-28
2022/03/03 05:14:59;;;;;;;88.27;62.80;;;13.40;63.50;;;;;;5258745;28;20048;-28
2022/03/03 05:17:30;;;;;;;97.57;72.83;;;13.30;63.00;;;;;;5263344;28;20078;-28
2022/03/03 05:20:02;;;;;;;115.97;80.23;;;13.40;62.80;;;;;;5249506;28;20078;-29
2022/03/03 05:22:33;;;;;;;112.43;78.57;;;13.30;62.70;;;;;;5246798;28;20132;-28
2022/03/03 05:25:05;;;;;;;101.17;71.30;;;13.40;62.80;;;;;;5258269;28;20044;-30
2022/03/03 05:27:42;;;;;;;92.93;64.97;;;13.40;62.60;;;;;;5269014;28;20135;-30
2022/03/03 05:30:14;;;;;;;75.17;55.07;;;13.40;62.40;;;;;;5268534;28;20462;-28
2022/03/03 05:32:47;;;;;;;75.73;56.47;;;13.50;62.40;;;;;;5261018;28;20428;-28
2022/03/03 05:35:19;;;;;;;79.43;57.87;;;13.50;62.50;;;;;;5249925;28;20482;-27
2022/03/03 05:37:49;;;;;;;71.47;55.20;;;13.60;62.90;;;;;;5247140;28;20397;-29
2022/03/03 05:40:21;;;;;;;73.40;54.70;;;13.60;64.20;;;;;;5247829;28;20055;-29
2022/03/03 05:42:52;;;;;;;89.57;68.90;;;13.60;64.60;;;;;;5247904;28;20540;-29
2022/03/03 05:45:23;;;;;;;87.53;64.70;;;13.70;65.00;;;;;;5247326;28;20406;-28
2022/03/03 05:47:54;;;;;;;87.27;65.20;;;13.70;65.00;;;;;;5246418;28;20041;-30
2022/03/03 05:50:25;;;;;;;75.70;58.33;;;13.70;65.30;;;;;;5256220;28;20042;-28
2022/03/03 05:52:59;;;;;;;74.33;55.87;;;13.70;64.40;;;;;;5268909;28;20048;-28
2022/03/03 05:55:30;;;;;;;80.63;58.23;;;13.70;63.90;;;;;;5268779;28;20117;-32
2022/03/03 05:58:01;;;;;;;70.57;52.63;;;13.60;63.90;;;;;;5269003;28;20048;-29
2022/03/03 06:00:33;;;;;;;66.20;46.67;;;13.70;63.90;;;;;;5251024;28;20040;-28
2022/03/03 06:03:04;;;;;;;62.97;45.60;;;13.70;63.90;;;;;;5252029;28;20067;-28
2022/03/03 06:05:35;;;;;;;85.80;64.00;;;13.60;63.90;;;;;;5272637;28;20075;-28
2022/03/03 06:08:06;;;;;;;82.10;63.50;;;13.70;63.90;;;;;;5254296;28;20067;-31
2022/03/03 06:10:42;;;;;;;92.57;64.43;;;13.70;64.20;;;;;;5254343;28;20040;-28
2022/03/03 06:13:35;;;;;;;90.53;59.30;;;13.60;64.40;;;;;;5238674;28;20044;-29
2022/03/03 06:16:06;;;;;;;78.95;52.50;;;13.70;64.70;;;;;;5233115;28;20099;-28
2022/03/03 06:18:37;;;;;;;77.07;53.63;;;13.70;64.80;;;;;;5232448;28;20083;-29
2022/03/03 06:21:08;;;;;;;75.00;54.43;;;13.60;64.90;;;;;;5232364;28;20068;-33
2022/03/03 06:23:39;;;;;;;74.30;53.63;;;13.70;64.80;;;;;;5199341;28;20122;-28
2022/03/03 06:26:16;;;;;;;78.67;54.43;;;13.60;65.20;;;;;;5232409;28;20082;-28
2022/03/03 06:28:47;;;;;;;59.87;45.00;;;13.60;65.60;;;;;;5248912;28;20052;-29
2022/03/03 06:31:18;;;;;;;55.30;42.43;;;13.60;65.60;;;;;;5232132;28;20068;-29
2022/03/03 06:33:49;;;;;;;53.77;41.67;;;13.60;65.90;;;;;;5248584;28;20044;-28
2022/03/03 06:36:20;;;;;;;50.40;40.70;;;13.60;66.00;;;;;;5231984;28;20064;-29
2022/03/03 06:38:52;;;;;;;51.57;39.03;;;13.60;66.40;;;;;;5248462;28;20493;-31
2022/03/03 06:41:24;;;;;;;52.70;39.27;;;13.60;66.10;;;;;;5248516;28;20091;-28
2022/03/03 06:43:55;;;;;;;48.50;38.80;;;13.60;65.80;;;;;;5248791;28;20060;-29
2022/03/03 06:46:26;;;;;;;54.53;40.27;;;13.60;65.70;;;;;;5248436;28;20060;-29
2022/03/03 06:48:57;;;;;;;51.73;41.33;;;13.60;65.70;;;;;;5231649;28;20452;-28
2022/03/03 06:51:30;;;;;;;60.40;48.60;;;13.60;65.80;;;;;;5231857;28;20533;-29
2022/03/03 06:54:02;;;;;;;61.95;49.03;;;13.60;65.90;;;;;;5264832;28;20040;-28
2022/03/03 06:56:34;;;;;;;67.73;50.63;;;13.60;77.50;;;;;;5271526;28;20093;-29
2022/03/03 06:59:05;;;;;;;62.75;48.38;;;13.80;81.60;;;;;;5254181;28;20067;-29
2022/03/03 07:01:37;;;;;;;54.67;43.93;;;13.90;82.60;;;;;;5254315;28;20375;-28
2022/03/03 07:04:10;;;;;;;53.63;41.97;;;14.10;83.40;;;;;;5253291;28;20044;-30
2022/03/03 07:06:42;;;;;;;50.40;40.33;;;14.20;81.90;;;;;;5271315;28;20071;-31
2022/03/03 07:09:13;;;;;;;53.13;41.20;;;14.30;84.80;;;;;;5270946;28;20036;-29
2022/03/03 07:11:44;;;;;;;49.10;39.67;;;14.40;85.70;;;;;;5270110;28;20478;-28
2022/03/03 07:14:15;;;;;;;49.50;39.63;;;14.60;84.20;;;;;;5270783;28;20047;-30
2022/03/03 07:16:56;;;;;;;49.10;40.20;;;14.70;81.30;;;;;;5270997;28;20056;-28
2022/03/03 07:19:48;;;;;;;52.73;41.63;;;14.70;79.30;;;;;;5253686;28;20050;-28
2022/03/03 07:22:19;;;;;;;50.03;40.07;;;14.70;76.30;;;;;;5270943;28;20052;-28
2022/03/03 07:25:00;;;;;;;53.40;39.43;;;14.80;74.70;;;;;;5271045;28;20044;-28
2022/03/03 07:27:31;;;;;;;50.00;39.37;;;14.70;74.10;;;;;;5253894;28;20469;-28
2022/03/03 07:30:07;;;;;;;50.03;39.17;;;14.70;73.10;;;;;;5265095;28;20055;-29
2022/03/03 07:32:46;;;;;;;50.27;38.20;;;14.80;81.20;;;;;;5247262;28;20049;-31
2022/03/03 07:35:17;;;;;;;46.57;38.20;;;14.80;88.20;;;;;;5262475;28;20048;-28
2022/03/03 07:37:58;;;;;;;54.00;40.77;;;14.90;90.10;;;;;;5247521;28;20036;-29
2022/03/03 07:40:30;;;;;;;52.70;40.97;;;15.00;90.90;;;;;;5259133;28;20485;-29
2022/03/03 07:43:01;;;;;;;54.77;41.17;;;15.10;90.90;;;;;;5251067;28;20044;-29
2022/03/03 07:45:32;;;;;;;53.43;40.77;;;15.10;90.50;;;;;;5253608;28;20091;-28
2022/03/03 07:48:03;;;;;;;53.03;41.20;;;15.10;89.60;;;;;;5258520;28;20045;-29
2022/03/03 07:50:39;;;;;;;47.53;39.13;;;15.20;87.60;;;;;;5259473;28;20036;-31
2022/03/03 07:53:11;;;;;;;47.57;37.90;;;15.10;78.70;;;;;;5269076;28;20067;-28
2022/03/03 07:55:53;;;;;;;50.40;38.23;;;15.10;74.30;;;;;;5252684;28;20067;-28
2022/03/03 07:58:27;;;;;;;50.10;38.40;;;15.00;72.40;;;;;;5270573;28;20052;-30
2022/03/03 08:00:59;;;;;;;47.27;37.97;;;15.00;72.20;;;;;;5269425;28;20048;-31
2022/03/03 08:03:30;;;;;;;51.03;40.80;;;15.00;71.90;;;;;;5270217;28;20064;-31
2022/03/03 08:06:01;;;;;;;52.53;38.83;;;14.90;71.80;;;;;;5268920;28;20454;-32
2022/03/03 08:08:32;;;;;;;48.23;38.23;;;14.90;71.60;;;;;;5269774;28;20048;-33
2022/03/03 08:11:06;;;;;;;44.73;35.97;;;14.90;73.30;;;;;;5270246;28;20039;-29
2022/03/03 08:13:39;;;;;;;47.77;36.87;;;14.80;72.30;;;;;;5269940;28;20048;-29
2022/03/03 08:16:10;;;;;;;46.87;38.63;;;14.80;75.00;;;;;;5251818;28;20054;-29
2022/03/03 08:18:41;;;;;;;47.60;38.53;;;14.80;72.20;;;;;;5268762;28;20040;-30
2022/03/03 08:21:13;;;;;;;49.03;37.63;;;14.70;75.30;;;;;;5268759;28;20051;-31
2022/03/03 08:23:44;;;;;;;42.57;33.50;;;14.70;80.20;;;;;;5270319;28;20078;-31
2022/03/03 08:26:15;;;;;;;37.63;31.37;;;14.80;81.40;;;;;;5267788;28;20076;-31
2022/03/03 08:28:48;;;;;;;38.23;32.77;;;14.20;70.90;;;;;;5270215;28;20512;-29
2022/03/03 08:31:22;;;;;;;36.57;30.70;;;12.90;73.40;;;;;;5268884;28;20044;-28
2022/03/03 08:33:54;;;;;;;37.90;30.40;;;11.90;75.30;;;;;;5252034;28;20058;-29
2022/03/03 08:36:57;;;;;;;36.50;29.63;;;11.30;76.70;;;;;;5268665;28;20044;-28
2022/03/03 08:39:29;;;;;;;37.70;29.93;;;10.90;78.10;;;;;;5249227;28;20044;-29
2022/03/03 08:42:00;;;;;;;38.73;28.43;;;10.70;78.70;;;;;;5235096;28;20401;-28
2022/03/03 08:44:35;;;;;;;33.67;26.20;;;10.60;78.70;;;;;;5268366;28;20093;-29
2022/03/03 08:47:06;;;;;;;32.60;25.27;;;10.50;79.30;;;;;;5268363;28;20036;-29
2022/03/03 08:49:39;;;;;;;31.97;24.43;;;10.30;79.60;;;;;;5269227;28;20469;-28
2022/03/03 08:52:11;;;;;;;29.13;21.48;;;10.20;80.30;;;;;;5269788;28;20047;-29
2022/03/03 08:54:42;;;;;;;28.30;21.97;;;10.20;80.20;;;;;;5269395;28;20154;-29
2022/03/03 08:57:18;;;;;;;27.60;21.70;;;10.10;80.70;;;;;;5269176;28;20040;-29
2022/03/03 08:59:49;;;;;;;27.73;22.37;;;10.10;80.90;;;;;;5269095;28;20078;-29
2022/03/03 09:02:21;;;;;;;31.07;24.03;;;10.00;81.30;;;;;;5251500;28;20048;-29
2022/03/03 09:04:54;;;;;;;25.38;21.48;;;9.90;81.40;;;;;;5268036;28;20066;-29
2022/03/03 09:07:25;;;;;;;26.67;21.00;;;9.90;81.70;;;;;;5268139;28;20048;-29
2022/03/03 09:09:56;;;;;;;30.33;23.43;;;9.90;81.70;;;;;;5269036;28;20059;-29
2022/03/03 09:12:27;;;;;;;26.33;20.87;;;9.90;81.80;;;;;;5269696;28;20036;-29
2022/03/03 09:15:03;;;;;;;22.87;18.93;;;9.80;81.80;;;;;;5269130;28;20040;-29
2022/03/03 09:17:35;;;;;;;21.63;17.87;;;9.80;81.80;;;;;;5251570;28;20089;-29
2022/03/03 09:20:11;;;;;;;23.43;18.43;;;9.70;82.10;;;;;;5269117;28;20055;-29
2022/03/03 09:22:43;;;;;;;22.00;16.77;;;9.70;82.30;;;;;;5267826;28;20535;-29
2022/03/03 09:25:17;;;;;;;22.33;17.27;;;9.60;82.10;;;;;;5252000;28;20455;-29
2022/03/03 09:27:49;;;;;;;22.20;17.90;;;9.60;82.30;;;;;;5269179;28;20481;-29
2022/03/03 09:30:21;;;;;;;21.63;17.13;;;9.60;82.40;;;;;;5267983;28;20126;-29
2022/03/03 09:32:52;;;;;;;19.73;15.53;;;9.50;82.60;;;;;;5250743;28;20059;-29
2022/03/03 09:35:23;;;;;;;18.37;15.40;;;9.60;82.60;;;;;;5268927;28;20110;-29
2022/03/03 09:37:54;;;;;;;19.67;15.23;;;10.00;82.20;;;;;;5253406;28;20055;-28
2022/03/03 09:40:25;;;;;;;;;;;10.40;81.50;;;;;;5273710;28;20044;-28
2022/03/03 09:42:56;;;;;;;;;;;10.70;80.50;;;;;;5273519;28;19924;-28
2022/03/03 09:45:27;;;;;;;;;;;11.00;79.70;;;;;;5273312;28;19927;-28
2022/03/03 09:48:00;;;;;;;;;;;11.30;79.10;;;;;;5273422;28;19981;-28
2022/03/03 09:50:31;;;;;;;;;;;11.50;78.40;;;;;;5272121;28;19920;-28
2022/03/03 09:53:06;;;;;;;;;;;11.70;77.90;;;;;;5272299;28;20313;-28
2022/03/03 09:55:37;;;;;;;;;;;11.90;77.50;;;;;;5273281;28;19920;-28
2022/03/03 09:58:08;;;;;;;;;;;12.00;77.10;;;;;;5271884;28;19930;-28
2022/03/03 10:00:40;;;;;;;;;;;12.20;76.90;;;;;;5273391;28;19920;-28
2022/03/03 10:03:15;;;;;;;;;;;12.30;76.60;;;;;;5271942;28;19920;-28
2022/03/03 10:05:49;;;;;;;;;;;12.40;76.30;;;;;;5273362;28;20258;-28
2022/03/03 10:08:23;;;;;;;;;;;12.50;76.10;;;;;;5272959;28;19927;-28
2022/03/03 10:10:54;;;;;;;;;;;12.60;75.70;;;;;;5273073;28;20353;-30
2022/03/03 10:13:25;;;;;;;;;;;12.60;75.50;;;;;;5272971;28;19927;-30
2022/03/03 10:15:57;;;;;;;;;;;12.70;75.50;;;;;;5271903;28;20280;-29
2022/03/03 10:18:28;;;;;;;;;;;12.70;75.40;;;;;;5272948;28;19927;-30
2022/03/03 10:21:01;;;;;;;;;;;12.80;75.30;;;;;;5271173;28;20313;-31
2022/03/03 10:23:33;;;;;;;;;;;12.80;75.30;;;;;;5271969;28;20362;-28
2022/03/03 10:26:06;;;;;;;;;;;12.90;75.10;;;;;;5271603;28;20381;-27
2022/03/03 10:28:37;;;;;;;;;;;12.90;74.90;;;;;;5272351;28;20014;-29
2022/03/03 10:31:08;;;;;;;;;;;13.00;74.90;;;;;;5272191;28;19920;-28
2022/03/03 10:33:40;;;;;;;;;;;13.00;74.70;;;;;;5272763;28;20309;-28
2022/03/03 10:36:30;;;;;;;;;;;13.10;74.80;;;;;;5272370;28;19947;-28
2022/03/03 10:39:02;;;;;;;;;;;13.10;74.70;;;;;;5272198;28;20254;-28
2022/03/03 10:41:37;;;;;;;;;;;13.10;74.30;;;;;;5272246;28;19926;-28
2022/03/03 10:44:09;;;;;;;;;;;13.20;74.10;;;;;;5272609;28;19998;-28
2022/03/03 10:46:58;;;;;;;;;;;13.20;74.20;;;;;;5272377;28;19934;-28
2022/03/03 10:49:30;;;;;;;;;;;13.20;74.10;;;;;;5269235;28;19920;-28
2022/03/03 10:52:16;;;;;;;;;;;13.20;74.20;;;;;;5269703;28;19920;-28
2022/03/03 10:54:56;;;;;;;;;;;13.20;74.10;;;;;;5269853;28;19969;-28
2022/03/03 10:57:42;;;;;;;;;;;13.20;74.00;;;;;;5269445;28;19920;-28
2022/03/03 11:00:14;;;;;;;;;;;13.20;73.90;;;;;;5253062;28;19920;-28
2022/03/03 11:02:50;;;;;;;;;;;13.30;74.10;;;;;;5269818;28;20455;-28
2022/03/03 11:05:21;;;;;;;;;;;13.30;73.90;;;;;;5253000;28;19920;-28
2022/03/03 11:07:53;;;;;;;;;;;13.30;74.00;;;;;;5269794;28;19920;-28
2022/03/03 11:10:25;;;;;;;;;;;13.30;74.20;;;;;;5269619;28;20388;-28
2022/03/03 11:12:56;;;;;;;;;;;13.30;74.20;;;;;;5266507;28;19934;-28
2022/03/03 11:15:28;;;;;;;;;;;13.30;74.30;;;;;;5268905;28;19973;-28
2022/03/03 11:17:59;;;;;;;;;;;13.40;74.20;;;;;;5268752;28;19974;-28
2022/03/03 11:20:30;;;;;;;;;;;13.40;74.10;;;;;;5270015;28;19924;-28
2022/03/03 11:23:01;;;;;;;;;;;13.40;73.90;;;;;;5270234;28;19920;-28
2022/03/03 11:25:33;;;;;;;;;;;13.40;74.20;;;;;;5270852;28;20280;-28
2022/03/03 11:28:09;;;;;;;;;;;13.40;74.10;;;;;;5270886;28;20379;-28
2022/03/03 11:30:41;;;;;;;;;;;13.40;74.00;;;;;;5269808;28;19920;-28
2022/03/03 11:33:35;;;;;;;;;;;13.30;74.00;;;;;;5270867;28;19955;-28
2022/03/03 11:36:09;;;;;;;;;;;13.30;73.90;;;;;;5270514;28;19928;-28
2022/03/03 11:38:44;;;;;;;;;;;13.40;73.90;;;;;;5269727;28;20022;-28
2022/03/03 11:41:15;;;;;;;;;;;13.40;74.10;;;;;;5271238;28;20288;-28
2022/03/03 11:43:47;;;;;;;;;;;13.30;73.90;;;;;;5270795;28;19935;-30
2022/03/03 11:46:37;;;;;;;;;;;13.30;73.80;;;;;;5270674;28;20290;-28
2022/03/03 11:49:09;;;;;;;;;;;13.30;73.90;;;;;;5270724;28;19927;-28
2022/03/03 11:51:40;;;;;;;;;;;13.30;74.00;;;;;;5270834;28;19920;-28
2022/03/03 11:54:11;;;;;;;;;;;13.30;74.00;;;;;;5269601;28;19958;-29
2022/03/03 11:57:00;;;;;;;;;;;13.40;74.00;;;;;;5269249;28;20015;-30
2022/03/03 11:59:35;;;;;;;;;;;13.30;74.00;;;;;;5270555;28;19920;-30
2022/03/03 12:02:06;;;;;;;;;;;13.30;73.90;;;;;;5269712;28;19985;-29
2022/03/03 12:04:40;;;;;;;;;;;13.30;74.00;;;;;;5270115;28;19927;-30
2022/03/03 12:07:40;;;;;;;;;;;13.30;74.10;;;;;;5269083;28;20369;-28
2022/03/03 12:10:21;;;;;;;;;;;13.40;74.10;;;;;;5205533;28;19943;-29
2022/03/03 12:13:15;;;;;;;;;;;13.30;73.90;;;;;;5190226;28;19925;-31
2022/03/03 12:16:07;;;;;;;;;;;13.40;73.90;;;;;;5205716;28;19921;-31
2022/03/03 12:18:38;;;;;;;;;;;13.40;74.00;;;;;;5205478;28;19928;-28
2022/03/03 12:21:23;;;;;;;;;;;13.40;74.10;;;;;;5205672;28;19920;-29
2022/03/03 12:24:27;;;;;;;;;;;13.40;74.10;;;;;;5203910;28;19925;-28
2022/03/03 12:27:15;;;;;;;;;;;13.40;74.10;;;;;;5205727;28;19928;-28
2022/03/03 12:30:10;;;;;;;;;;;13.40;73.90;;;;;;5205574;28;19932;-28
2022/03/03 12:32:58;;;;;;;;;;;13.40;73.70;;;;;;5182847;28;19921;-33
2022/03/03 12:35:50;;;;;;;;;;;13.40;73.70;;;;;;5169194;28;19921;-30
2022/03/03 12:38:38;;;;;;;;;;;13.40;73.80;;;;;;5184805;28;19964;-31
2022/03/03 12:41:12;;;;;;;;;;;13.40;73.90;;;;;;5168571;28;19928;-29
2022/03/03 12:43:52;;;;;;;;;;;13.30;73.70;;;;;;5185120;28;20367;-31
2022/03/03 12:46:40;;;;;;;;;;;13.40;73.80;;;;;;5221045;28;19962;-29
2022/03/03 12:49:33;;;;;;;;;;;13.40;73.70;;;;;;5252862;28;20432;-28
2022/03/03 12:52:05;;;;;;;;;;;13.40;73.70;;;;;;5250457;28;19920;-30
2022/03/03 12:54:39;;;;;;;;;;;13.40;73.70;;;;;;5267558;28;19931;-33
2022/03/03 12:57:15;;;;;;;;;;;13.40;73.80;;;;;;5251569;28;20335;-29
2022/03/03 12:59:47;;;;;;;;;;;13.40;73.70;;;;;;5250652;28;19931;-29
2022/03/03 13:02:18;;;;;;;;;;;13.40;73.60;;;;;;5250512;28;20005;-29
2022/03/03 13:04:49;;;;;;;;;;;13.40;73.50;;;;;;5250667;28;19998;-28
2022/03/03 13:07:21;;;;;;;;;;;13.40;73.60;;;;;;5267264;28;19920;-29
2022/03/03 13:09:55;;;;;;;;;;;13.40;73.60;;;;;;5250541;28;19931;-30
2022/03/03 13:12:26;;;;;;;;;;;13.40;73.60;;;;;;5269295;28;20460;-28
2022/03/03 13:15:00;;;;;;;;;;;13.40;73.50;;;;;;5271811;28;19920;-28
2022/03/03 13:17:31;;;;;;;;;;;13.40;73.40;;;;;;5271831;28;19970;-29
2022/03/03 13:20:03;;;;;;;;;;;13.40;73.40;;;;;;5271219;28;20335;-33